createdAt,value
2023-11-30T00:00:33.332Z,28.27
2023-11-30T00:03:05.554Z,31.20
2023-11-30T00:05:33.599Z,26.07
2023-11-30T00:08:01.568Z,26.73
2023-11-30T00:10:29.579Z,30.30
2023-11-30T00:12:57.773Z,31.90
2023-11-30T00:15:25.841Z,27.80
2023-11-30T00:17:53.921Z,29.03
2023-11-30T00:20:23.422Z,31.57
2023-11-30T00:22:51.415Z,31.27
2023-11-30T00:25:19.444Z,30.43
2023-11-30T00:27:47.397Z,28.87
2023-11-30T00:30:16.259Z,31.40
2023-11-30T00:32:44.270Z,34.17
2023-11-30T00:35:12.269Z,31.63
2023-11-30T00:37:41.619Z,27.57
2023-11-30T00:40:11.128Z,30.57
2023-11-30T00:42:39.181Z,28.50
2023-11-30T00:45:08.669Z,25.17
2023-11-30T00:47:36.767Z,25.33
2023-11-30T00:50:05.543Z,26.63
2023-11-30T00:52:33.560Z,25.53
2023-11-30T00:55:03.061Z,23.53
2023-11-30T00:57:31.142Z,25.10
2023-11-30T01:00:01.580Z,29.50
2023-11-30T01:02:29.736Z,26.50
2023-11-30T01:04:57.778Z,24.10
2023-11-30T01:07:25.864Z,25.87
2023-11-30T01:09:53.835Z,24.07
2023-11-30T01:12:23.313Z,19.40
2023-11-30T01:14:51.328Z,25.83
2023-11-30T01:17:19.375Z,24.40
2023-11-30T01:19:47.406Z,23.43
2023-11-30T01:22:15.364Z,19.07
2023-11-30T01:24:43.466Z,20.07
2023-11-30T01:27:11.521Z,18.90
2023-11-30T01:29:40.921Z,20.67
2023-11-30T01:32:08.920Z,20.23
2023-11-30T01:34:36.903Z,20.17
2023-11-30T01:37:04.907Z,16.90
2023-11-30T01:39:32.981Z,19.10
2023-11-30T01:42:02.750Z,17.60
2023-11-30T01:44:31.913Z,22.47
2023-11-30T01:47:01.736Z,20.40
2023-11-30T01:49:29.779Z,18.47
2023-11-30T01:51:57.826Z,15.70
2023-11-30T01:54:25.832Z,20.10
2023-11-30T01:56:53.872Z,12.13
2023-11-30T01:59:21.904Z,13.40
2023-11-30T02:01:50.017Z,11.87
2023-11-30T02:04:19.478Z,11.40
2023-11-30T02:06:48.210Z,11.87
2023-11-30T02:09:16.359Z,9.07
2023-11-30T02:11:44.427Z,11.13
2023-11-30T02:14:12.376Z,13.70
2023-11-30T02:16:40.599Z,11.07
2023-11-30T02:19:08.616Z,13.20
2023-11-30T02:21:37.950Z,9.93
2023-11-30T02:24:08.406Z,11.63
2023-11-30T02:26:36.613Z,13.83
2023-11-30T02:29:04.689Z,12.60
2023-11-30T02:31:33.549Z,13.13
2023-11-30T02:34:01.752Z,12.53
2023-11-30T02:36:29.918Z,11.10
2023-11-30T02:38:58.003Z,11.93
2023-11-30T02:41:27.425Z,13.27
2023-11-30T02:43:55.416Z,9.73
2023-11-30T02:46:23.436Z,11.07
2023-11-30T02:48:51.532Z,9.83
2023-11-30T02:51:19.686Z,11.40
2023-11-30T02:53:47.718Z,14.17
2023-11-30T02:56:15.719Z,10.37
2023-11-30T02:58:45.052Z,12.30
2023-11-30T03:01:13.149Z,15.13
2023-11-30T03:03:41.250Z,13.33
2023-11-30T03:06:12.780Z,13.37
2023-11-30T03:08:40.822Z,16.33
2023-11-30T03:11:08.868Z,14.27
2023-11-30T03:13:36.956Z,15.63
2023-11-30T03:16:07.143Z,14.83
2023-11-30T03:18:35.230Z,18.73
2023-11-30T03:21:03.275Z,19.10
2023-11-30T03:23:31.264Z,13.80
2023-11-30T03:25:59.241Z,17.67
2023-11-30T03:28:29.119Z,16.20
2023-11-30T03:30:57.135Z,16.13
2023-11-30T03:33:26.543Z,13.00
2023-11-30T03:35:55.291Z,17.83
2023-11-30T03:38:23.258Z,15.27
2023-11-30T03:40:51.397Z,18.27
2023-11-30T03:43:19.482Z,15.23
2023-11-30T03:45:47.561Z,17.57
2023-11-30T03:48:15.661Z,18.03
2023-11-30T03:50:45.302Z,13.53
2023-11-30T03:53:13.285Z,15.73
2023-11-30T03:55:41.481Z,14.57
2023-11-30T03:58:09.454Z,11.87
2023-11-30T04:00:38.834Z,20.10
2023-11-30T04:03:06.919Z,17.03
2023-11-30T04:05:34.872Z,18.70
2023-11-30T04:08:04.521Z,14.13
2023-11-30T04:10:32.501Z,14.83
2023-11-30T04:13:00.707Z,14.83
2023-11-30T04:15:28.777Z,20.20
2023-11-30T04:17:57.669Z,13.63
2023-11-30T04:20:25.667Z,17.53
2023-11-30T04:22:53.687Z,13.00
2023-11-30T04:25:23.653Z,13.50
2023-11-30T04:27:51.650Z,15.63
2023-11-30T04:30:19.872Z,13.93
2023-11-30T04:32:47.922Z,19.27
2023-11-30T04:35:16.216Z,17.23
2023-11-30T04:37:44.194Z,16.27
2023-11-30T04:40:13.849Z,16.50
2023-11-30T04:42:43.239Z,18.07
2023-11-30T04:45:11.475Z,18.63
2023-11-30T04:47:40.184Z,17.73
2023-11-30T04:50:09.452Z,17.57
2023-11-30T04:52:37.434Z,17.30
2023-11-30T04:55:06.090Z,16.57
2023-11-30T04:57:34.114Z,18.00
2023-11-30T05:00:06.584Z,12.17
2023-11-30T05:02:35.346Z,19.57
2023-11-30T05:05:04.056Z,16.63
2023-11-30T05:07:32.198Z,18.43
2023-11-30T05:10:00.247Z,14.77
2023-11-30T05:12:28.258Z,9.67
2023-11-30T05:14:56.599Z,12.37
2023-11-30T05:17:26.045Z,20.53
2023-11-30T05:19:54.081Z,15.77
2023-11-30T05:22:22.057Z,15.37
2023-11-30T05:24:51.380Z,16.87
2023-11-30T05:27:19.378Z,16.47
2023-11-30T05:29:47.396Z,21.53
2023-11-30T05:32:15.616Z,16.83
2023-11-30T05:34:45.006Z,13.60
2023-11-30T05:37:13.022Z,11.73
2023-11-30T05:39:42.235Z,11.10
2023-11-30T05:42:11.307Z,9.70
2023-11-30T05:44:39.358Z,11.10
2023-11-30T05:47:07.829Z,16.70
2023-11-30T05:49:36.107Z,6.67
2023-11-30T05:52:05.708Z,14.03
2023-11-30T05:54:34.069Z,21.23
2023-11-30T05:57:02.223Z,16.23
2023-11-30T05:59:30.270Z,18.83
2023-11-30T06:01:58.631Z,14.83
2023-11-30T06:04:26.775Z,14.27
2023-11-30T06:06:54.855Z,18.13
2023-11-30T06:09:24.274Z,15.13
2023-11-30T06:11:53.651Z,13.17
2023-11-30T06:14:21.728Z,12.50
2023-11-30T06:16:49.729Z,9.73
2023-11-30T06:19:17.736Z,10.57
2023-11-30T06:21:45.959Z,9.83
2023-11-30T06:24:14.078Z,6.93
2023-11-30T06:26:44.252Z,9.53
2023-11-30T06:29:12.413Z,13.23
2023-11-30T06:31:40.577Z,10.33
2023-11-30T06:34:08.586Z,13.63
2023-11-30T06:36:37.017Z,12.90
2023-11-30T06:39:06.155Z,14.73
2023-11-30T06:41:34.252Z,9.30
2023-11-30T06:44:03.981Z,10.97
2023-11-30T06:46:31.982Z,13.47
2023-11-30T06:48:59.886Z,13.13
2023-11-30T06:51:27.965Z,10.87
2023-11-30T06:53:54.960Z,14.17
2023-11-30T06:56:22.978Z,11.13
2023-11-30T06:58:51.083Z,14.03
2023-11-30T07:01:20.427Z,11.67
2023-11-30T07:03:48.451Z,10.27
2023-11-30T07:06:16.662Z,8.53
2023-11-30T07:08:44.821Z,8.30
2023-11-30T07:11:15.719Z,11.13
2023-11-30T07:13:43.865Z,8.70
2023-11-30T07:16:12.825Z,11.60
2023-11-30T07:18:42.791Z,10.43
2023-11-30T07:21:14.653Z,8.77
2023-11-30T07:23:43.377Z,13.60
2023-11-30T07:26:14.583Z,9.30
2023-11-30T07:28:42.759Z,11.47
2023-11-30T07:31:10.810Z,6.07
2023-11-30T07:33:39.788Z,12.50
2023-11-30T07:36:13.520Z,10.47
2023-11-30T07:38:42.302Z,14.03
2023-11-30T07:41:10.437Z,18.00
2023-11-30T07:43:38.449Z,17.67
2023-11-30T07:46:07.115Z,10.30
2023-11-30T07:48:35.137Z,14.40
2023-11-30T07:51:03.165Z,16.60
2023-11-30T07:53:32.551Z,17.53
2023-11-30T07:56:00.783Z,10.97
2023-11-30T07:58:28.752Z,19.33
2023-11-30T08:00:58.090Z,16.10
2023-11-30T08:03:26.370Z,14.73
2023-11-30T08:05:54.922Z,11.10
2023-11-30T08:08:22.967Z,15.67
2023-11-30T08:10:52.605Z,11.57
2023-11-30T08:13:21.171Z,13.00
2023-11-30T08:15:49.745Z,9.40
2023-11-30T08:18:19.717Z,9.63
2023-11-30T08:20:49.380Z,11.27
2023-11-30T08:23:18.039Z,6.90
2023-11-30T08:25:46.027Z,9.67
2023-11-30T08:28:17.980Z,9.00
2023-11-30T08:30:47.078Z,21.00
2023-11-30T08:33:15.397Z,8.57
2023-11-30T08:35:43.619Z,8.93
2023-11-30T08:38:11.639Z,7.27
2023-11-30T08:40:39.670Z,7.03
2023-11-30T08:43:07.804Z,7.83
2023-11-30T08:45:37.798Z,6.00
2023-11-30T08:48:06.695Z,11.23
2023-11-30T08:50:34.879Z,11.43
2023-11-30T08:53:03.892Z,12.07
2023-11-30T08:55:31.880Z,8.70
2023-11-30T08:57:59.924Z,12.57
2023-11-30T09:00:27.949Z,10.90
2023-11-30T09:02:57.633Z,16.23
2023-11-30T09:05:25.899Z,10.30
2023-11-30T09:07:53.820Z,5.83
2023-11-30T09:10:21.880Z,30.03
2023-11-30T09:12:50.015Z,14.40
2023-11-30T09:15:19.467Z,7.60
2023-11-30T09:17:49.484Z,10.67
2023-11-30T09:20:21.356Z,6.93
2023-11-30T09:22:49.751Z,9.80
2023-11-30T09:25:18.056Z,13.60
2023-11-30T09:27:47.658Z,9.63
2023-11-30T09:30:16.763Z,10.97
2023-11-30T09:32:44.972Z,7.93
2023-11-30T09:35:14.467Z,9.37
2023-11-30T09:37:43.879Z,8.70
2023-11-30T09:40:14.783Z,7.13
2023-11-30T09:42:42.837Z,10.57
2023-11-30T09:45:11.564Z,6.33
2023-11-30T09:47:39.745Z,6.47
2023-11-30T09:50:08.822Z,8.03
2023-11-30T09:52:38.586Z,4.37
2023-11-30T09:55:12.418Z,7.90
2023-11-30T09:57:40.897Z,8.90
2023-11-30T10:00:11.632Z,12.77
2023-11-30T10:02:39.857Z,5.50
2023-11-30T10:05:10.563Z,3.17
2023-11-30T10:07:40.591Z,13.73
2023-11-30T10:10:10.631Z,10.47
2023-11-30T10:12:38.859Z,8.33
2023-11-30T10:15:07.856Z,5.13
2023-11-30T10:17:37.794Z,8.17
2023-11-30T10:20:06.888Z,7.50
2023-11-30T10:22:35.039Z,10.67
2023-11-30T10:25:03.105Z,8.70
2023-11-30T10:27:32.506Z,5.83
2023-11-30T10:30:02.392Z,6.80
2023-11-30T10:32:31.930Z,6.27
2023-11-30T10:35:00.064Z,4.67
2023-11-30T10:37:28.730Z,4.63
2023-11-30T10:40:00.867Z,9.43
2023-11-30T10:42:29.071Z,5.40
2023-11-30T10:44:59.302Z,8.23
2023-11-30T10:47:27.306Z,6.67
2023-11-30T10:49:55.464Z,6.77
2023-11-30T10:52:24.218Z,7.10
2023-11-30T10:54:55.694Z,9.60
2023-11-30T10:57:23.794Z,11.77
2023-11-30T10:59:59.885Z,9.13
2023-11-30T11:02:37.327Z,9.03
2023-11-30T11:05:10.286Z,9.73
2023-11-30T11:07:38.478Z,6.27
2023-11-30T11:10:08.305Z,9.23
2023-11-30T11:12:38.973Z,9.00
2023-11-30T11:15:14.327Z,14.10
2023-11-30T11:17:47.916Z,11.03
2023-11-30T11:20:26.059Z,11.87
2023-11-30T11:22:55.889Z,9.33
2023-11-30T11:25:24.004Z,11.50
2023-11-30T11:27:52.687Z,12.20
2023-11-30T11:30:27.560Z,8.27
2023-11-30T11:32:58.315Z,6.57
2023-11-30T11:35:27.779Z,6.97
2023-11-30T11:37:58.116Z,8.53
2023-11-30T11:40:26.643Z,9.47
2023-11-30T11:42:54.756Z,6.10
2023-11-30T11:45:24.440Z,8.03
2023-11-30T11:47:52.637Z,17.60
2023-11-30T11:50:20.683Z,9.23
2023-11-30T11:52:49.922Z,3.87
2023-11-30T11:55:18.034Z,4.80
2023-11-30T11:57:46.553Z,6.63
2023-11-30T12:00:18.016Z,7.67
2023-11-30T12:02:47.805Z,6.43
2023-11-30T12:05:17.446Z,5.83
2023-11-30T12:07:49.571Z,6.23
2023-11-30T12:10:30.518Z,8.77
2023-11-30T12:12:59.259Z,8.00
2023-11-30T12:15:27.657Z,3.97
2023-11-30T12:17:57.298Z,4.67
2023-11-30T12:20:25.321Z,12.83
2023-11-30T12:22:53.350Z,6.43
2023-11-30T12:25:21.406Z,7.00
2023-11-30T12:27:49.473Z,7.70
2023-11-30T12:30:17.608Z,8.17
2023-11-30T12:32:45.701Z,6.57
2023-11-30T12:35:16.616Z,4.23
2023-11-30T12:37:44.746Z,2.70
2023-11-30T12:40:14.912Z,8.77
2023-11-30T12:42:44.181Z,7.43
2023-11-30T12:45:12.501Z,7.30
2023-11-30T12:47:41.629Z,6.33
2023-11-30T12:50:11.334Z,7.40
2023-11-30T12:52:40.773Z,6.73
2023-11-30T12:55:09.921Z,7.90
2023-11-30T12:57:40.472Z,6.67
2023-11-30T13:00:10.872Z,12.40
2023-11-30T13:02:39.141Z,6.10
2023-11-30T13:05:07.344Z,5.90
2023-11-30T13:07:35.403Z,7.87
2023-11-30T13:10:05.733Z,11.20
2023-11-30T13:12:33.833Z,7.10
2023-11-30T13:15:01.909Z,5.10
2023-11-30T13:17:30.069Z,6.87
2023-11-30T13:19:58.191Z,5.27
2023-11-30T13:22:26.244Z,6.00
2023-11-30T13:24:54.431Z,6.20
2023-11-30T13:27:23.864Z,7.33
2023-11-30T13:29:51.912Z,5.47
2023-11-30T13:32:20.148Z,6.47
2023-11-30T13:34:48.247Z,9.07
2023-11-30T13:37:16.403Z,7.00
2023-11-30T13:39:44.904Z,6.83
2023-11-30T13:42:12.901Z,7.73
2023-11-30T13:44:42.349Z,8.30
2023-11-30T13:47:11.102Z,5.70
2023-11-30T13:49:39.526Z,6.60
2023-11-30T13:52:08.594Z,8.00
2023-11-30T13:54:38.401Z,8.53
2023-11-30T13:57:09.617Z,4.80
2023-11-30T13:59:37.635Z,10.33
2023-11-30T14:02:08.145Z,6.67
2023-11-30T14:04:36.279Z,7.50
2023-11-30T14:07:05.174Z,5.43
2023-11-30T14:09:33.426Z,4.53
2023-11-30T14:12:01.667Z,4.80
2023-11-30T14:14:29.661Z,2.93
2023-11-30T14:16:57.754Z,3.47
2023-11-30T14:19:27.118Z,3.50
2023-11-30T14:21:55.398Z,3.97
2023-11-30T14:24:23.476Z,3.37
2023-11-30T14:26:51.607Z,3.63
2023-11-30T14:29:19.706Z,2.30
2023-11-30T14:31:48.684Z,3.23
2023-11-30T14:34:16.802Z,3.43
2023-11-30T14:36:46.267Z,3.23
2023-11-30T14:39:14.311Z,2.50
2023-11-30T14:41:42.406Z,6.43
2023-11-30T14:44:11.433Z,6.33
2023-11-30T14:46:39.869Z,11.93
2023-11-30T14:49:08.414Z,11.60
2023-11-30T14:51:36.694Z,6.00
2023-11-30T14:54:07.313Z,11.87
2023-11-30T14:56:35.393Z,4.33
2023-11-30T14:59:05.088Z,5.27
2023-11-30T15:01:33.246Z,6.20
2023-11-30T15:04:01.801Z,4.30
2023-11-30T15:06:29.928Z,6.27
2023-11-30T15:08:57.941Z,5.47
2023-11-30T15:11:27.463Z,4.70
2023-11-30T15:13:55.523Z,4.60
2023-11-30T15:16:23.642Z,5.57
2023-11-30T15:18:52.051Z,2.73
2023-11-30T15:21:20.282Z,4.20
2023-11-30T15:23:48.457Z,8.07
2023-11-30T15:26:16.639Z,1.93
2023-11-30T15:28:46.132Z,3.10
2023-11-30T15:31:14.210Z,2.07
2023-11-30T15:33:42.346Z,3.53
2023-11-30T15:36:11.153Z,4.83
2023-11-30T15:38:39.201Z,3.27
2023-11-30T15:41:07.421Z,4.27
2023-11-30T15:43:35.701Z,4.50
2023-11-30T15:46:06.663Z,1.80
2023-11-30T15:48:34.884Z,4.00
2023-11-30T15:51:03.866Z,1.70
2023-11-30T15:53:31.941Z,2.37
2023-11-30T15:55:59.945Z,4.57
2023-11-30T15:58:29.126Z,3.97
2023-11-30T16:01:00.071Z,3.10
2023-11-30T16:03:29.713Z,2.50
2023-11-30T16:05:57.876Z,3.50
2023-11-30T16:08:25.948Z,3.40
2023-11-30T16:10:53.988Z,4.37
2023-11-30T16:13:23.189Z,5.03
2023-11-30T16:15:52.313Z,2.57
2023-11-30T16:18:20.638Z,5.63
2023-11-30T16:20:50.081Z,2.50
2023-11-30T16:23:18.153Z,3.23
2023-11-30T16:25:46.262Z,3.07
2023-11-30T16:28:14.359Z,2.03
2023-11-30T16:30:42.517Z,6.13
2023-11-30T16:33:10.680Z,3.53
2023-11-30T16:35:38.924Z,7.10
2023-11-30T16:38:08.343Z,5.30
2023-11-30T16:40:36.486Z,6.10
2023-11-30T16:43:05.116Z,2.33
2023-11-30T16:45:33.116Z,4.83
2023-11-30T16:48:01.175Z,5.33
2023-11-30T16:50:29.250Z,3.73
2023-11-30T16:52:59.002Z,2.77
2023-11-30T16:55:28.457Z,4.00
2023-11-30T16:57:56.930Z,6.40
2023-11-30T17:00:25.506Z,7.50
2023-11-30T17:02:54.850Z,2.67
2023-11-30T17:05:22.937Z,2.93
2023-11-30T17:07:51.164Z,2.90
2023-11-30T17:10:19.161Z,6.83
2023-11-30T17:12:48.684Z,5.00
2023-11-30T17:15:18.406Z,7.07
2023-11-30T17:17:50.516Z,2.67
2023-11-30T17:20:18.942Z,5.77
2023-11-30T17:22:50.692Z,4.23
2023-11-30T17:25:18.765Z,2.30
2023-11-30T17:27:48.653Z,4.50
2023-11-30T17:30:17.359Z,6.27
2023-11-30T17:32:45.470Z,7.73
2023-11-30T17:35:14.075Z,5.17
2023-11-30T17:37:42.578Z,4.73
2023-11-30T17:40:12.049Z,9.73
2023-11-30T17:42:40.172Z,4.73
2023-11-30T17:45:11.203Z,6.10
2023-11-30T17:47:40.221Z,7.67
2023-11-30T17:50:09.342Z,6.23
2023-11-30T17:52:37.323Z,5.80
2023-11-30T17:55:05.685Z,11.80
2023-11-30T17:57:34.288Z,4.93
2023-11-30T18:00:02.362Z,6.87
2023-11-30T18:02:31.826Z,7.00
2023-11-30T18:04:59.857Z,7.00
2023-11-30T18:07:27.988Z,6.40
2023-11-30T18:09:56.153Z,2.43
2023-11-30T18:12:25.673Z,2.67
2023-11-30T18:14:53.715Z,4.27
2023-11-30T18:17:21.771Z,3.63
2023-11-30T18:19:51.226Z,4.00
2023-11-30T18:22:19.374Z,5.80
2023-11-30T18:24:47.432Z,4.60
2023-11-30T18:27:15.469Z,12.07
2023-11-30T18:29:43.626Z,9.43
2023-11-30T18:32:12.983Z,12.03
2023-11-30T18:34:41.388Z,13.80
2023-11-30T18:37:10.991Z,27.17
2023-11-30T18:39:39.090Z,13.27
2023-11-30T18:42:07.214Z,12.13
2023-11-30T18:44:35.213Z,6.83
2023-11-30T18:47:04.151Z,8.00
2023-11-30T18:49:33.900Z,7.70
2023-11-30T18:52:01.982Z,4.30
2023-11-30T18:54:31.675Z,5.37
2023-11-30T18:56:59.765Z,82.93
2023-11-30T18:59:28.859Z,20.93
2023-11-30T19:01:57.215Z,41.93
2023-11-30T19:04:25.579Z,29.37
2023-11-30T19:06:53.670Z,22.07
2023-11-30T19:09:22.482Z,10.93
2023-11-30T19:11:52.438Z,8.70
2023-11-30T19:14:21.125Z,8.07
2023-11-30T19:16:49.524Z,10.57
2023-11-30T19:19:17.601Z,6.40
2023-11-30T19:21:45.795Z,4.37
2023-11-30T19:24:16.235Z,12.30
2023-11-30T19:26:45.043Z,6.67
2023-11-30T19:29:15.301Z,8.73
2023-11-30T19:31:43.469Z,6.77
2023-11-30T19:34:13.136Z,6.63
2023-11-30T19:36:41.549Z,8.13
2023-11-30T19:39:09.734Z,8.93
2023-11-30T19:41:37.782Z,4.80
2023-11-30T19:44:06.083Z,5.50
2023-11-30T19:46:35.612Z,6.37
2023-11-30T19:49:03.798Z,6.60
2023-11-30T19:51:32.974Z,3.77
2023-11-30T19:54:01.045Z,3.90
2023-11-30T19:56:29.864Z,7.53
2023-11-30T19:58:58.012Z,4.83
2023-11-30T20:01:26.158Z,8.00
2023-11-30T20:03:55.707Z,6.90
2023-11-30T20:06:23.893Z,4.03
2023-11-30T20:08:51.989Z,9.70
2023-11-30T20:11:22.643Z,8.80
2023-11-30T20:13:51.029Z,10.60
2023-11-30T20:16:19.123Z,8.77
2023-11-30T20:18:47.279Z,4.40
2023-11-30T20:21:22.066Z,9.03
2023-11-30T20:23:50.395Z,6.23
2023-11-30T20:26:19.579Z,7.23
2023-11-30T20:28:48.100Z,11.20
2023-11-30T20:31:16.587Z,8.47
2023-11-30T20:33:47.107Z,17.30
2023-11-30T20:36:19.383Z,5.43
2023-11-30T20:38:48.970Z,6.57
2023-11-30T20:41:18.631Z,7.47
2023-11-30T20:43:48.963Z,4.20
2023-11-30T20:46:19.460Z,4.53
2023-11-30T20:48:49.652Z,5.27
2023-11-30T20:51:21.002Z,9.13
2023-11-30T20:53:52.943Z,8.17
2023-11-30T20:56:25.893Z,6.20
2023-11-30T20:58:53.971Z,4.80
2023-11-30T21:01:23.942Z,6.13
2023-11-30T21:03:52.473Z,5.97
2023-11-30T21:06:20.878Z,6.33
2023-11-30T21:08:51.784Z,5.87
2023-11-30T21:11:19.965Z,7.93
2023-11-30T21:13:49.323Z,9.00
2023-11-30T21:16:20.422Z,5.17
2023-11-30T21:18:49.082Z,6.77
2023-11-30T21:21:17.995Z,5.27
2023-11-30T21:23:47.408Z,5.57
2023-11-30T21:26:16.992Z,8.77
2023-11-30T21:28:44.974Z,8.53
2023-11-30T21:31:13.429Z,6.53
2023-11-30T21:33:41.616Z,6.40
2023-11-30T21:36:13.806Z,6.10
2023-11-30T21:38:41.832Z,6.33
2023-11-30T21:41:09.877Z,7.73
2023-11-30T21:43:39.448Z,11.23
2023-11-30T21:46:08.167Z,8.63
2023-11-30T21:48:36.515Z,10.20
2023-11-30T21:51:04.772Z,6.77
2023-11-30T21:53:35.957Z,6.23
2023-11-30T21:56:04.040Z,8.23
2023-11-30T21:58:33.830Z,13.53
2023-11-30T22:01:05.973Z,6.60
2023-11-30T22:03:34.614Z,8.00
2023-11-30T22:06:02.835Z,9.93
2023-11-30T22:08:30.919Z,7.93
2023-11-30T22:10:58.973Z,6.43
2023-11-30T22:13:27.056Z,9.60
2023-11-30T22:16:00.065Z,10.50
2023-11-30T22:18:33.727Z,6.77
2023-11-30T22:21:04.126Z,7.13
2023-11-30T22:23:33.666Z,5.27
2023-11-30T22:26:04.419Z,7.73
2023-11-30T22:28:32.867Z,10.53
2023-11-30T22:31:01.135Z,11.17
2023-11-30T22:33:29.372Z,6.07
2023-11-30T22:35:58.896Z,7.73
2023-11-30T22:38:30.961Z,7.90
2023-11-30T22:41:00.838Z,7.20
2023-11-30T22:43:28.964Z,5.37
2023-11-30T22:45:57.021Z,9.57
2023-11-30T22:48:26.133Z,8.20
2023-11-30T22:50:54.329Z,7.63
2023-11-30T22:53:23.982Z,9.53
2023-11-30T22:55:52.171Z,12.70
2023-11-30T22:58:20.484Z,8.50
2023-11-30T23:00:48.981Z,10.17
2023-11-30T23:03:17.282Z,8.40
2023-11-30T23:05:45.729Z,6.97
2023-11-30T23:08:13.833Z,5.87
2023-11-30T23:10:43.314Z,7.07
2023-11-30T23:13:12.811Z,7.83
2023-11-30T23:15:40.965Z,6.43
2023-11-30T23:18:11.249Z,7.83
2023-11-30T23:20:39.646Z,5.77
2023-11-30T23:23:07.716Z,8.17
2023-11-30T23:25:35.762Z,8.10
2023-11-30T23:28:05.989Z,9.63
2023-11-30T23:30:34.102Z,6.23
2023-11-30T23:33:02.412Z,7.87
2023-11-30T23:35:30.489Z,11.23
2023-11-30T23:37:58.519Z,8.37
2023-11-30T23:40:26.501Z,8.67
2023-11-30T23:42:54.762Z,8.77
2023-11-30T23:45:24.197Z,10.70
2023-11-30T23:47:52.246Z,7.33
2023-11-30T23:50:20.346Z,7.27
2023-11-30T23:52:48.509Z,9.97
2023-11-30T23:55:16.831Z,7.80
2023-11-30T23:57:46.215Z,9.77
